sensor_id;sensor_type;location;lat;lon;timestamp;temperature;humidity
15156;DHT22;7678;50.058;8.306;2024-01-07T00:00:04;4.10;99.90
15156;DHT22;7678;50.058;8.306;2024-01-07T00:02:33;4.10;99.90
15156;DHT22;7678;50.058;8.306;2024-01-07T00:05:01;4.10;99.90
15156;DHT22;7678;50.058;8.306;2024-01-07T00:07:31;4.10;99.90
15156;DHT22;7678;50.058;8.306;2024-01-07T00:10:01;4.10;99.90
15156;DHT22;7678;50.058;8.306;2024-01-07T00:12:30;4.20;99.90
15156;DHT22;7678;50.058;8.306;2024-01-07T00:15:01;4.10;99.90
15156;DHT22;7678;50.058;8.306;2024-01-07T00:17:29;4.10;99.90
15156;DHT22;7678;50.058;8.306;2024-01-07T00:19:57;4.20;99.90
15156;DHT22;7678;50.058;8.306;2024-01-07T00:22:28;4.20;99.90
15156;DHT22;7678;50.058;8.306;2024-01-07T00:25:00;4.10;99.90
15156;DHT22;7678;50.058;8.306;2024-01-07T00:27:29;4.10;99.90
15156;DHT22;7678;50.058;8.306;2024-01-07T00:29:57;4.20;99.90
15156;DHT22;7678;50.058;8.306;2024-01-07T00:32:26;4.10;99.90
15156;DHT22;7678;50.058;8.306;2024-01-07T00:34:57;4.20;99.90
15156;DHT22;7678;50.058;8.306;2024-01-07T00:37:25;4.10;99.90
15156;DHT22;7678;50.058;8.306;2024-01-07T00:39:53;4.10;99.90
15156;DHT22;7678;50.058;8.306;2024-01-07T00:42:23;4.20;99.90
15156;DHT22;7678;50.058;8.306;2024-01-07T00:44:52;4.20;99.90
15156;DHT22;7678;50.058;8.306;2024-01-07T00:47:20;4.10;99.90
15156;DHT22;7678;50.058;8.306;2024-01-07T00:49:48;4.20;99.90
15156;DHT22;7678;50.058;8.306;2024-01-07T00:52:18;4.20;99.90
15156;DHT22;7678;50.058;8.306;2024-01-07T00:54:47;4.10;99.90
15156;DHT22;7678;50.058;8.306;2024-01-07T00:57:16;4.10;99.90
15156;DHT22;7678;50.058;8.306;2024-01-07T00:59:46;4.10;99.90
15156;DHT22;7678;50.058;8.306;2024-01-07T01:02:15;4.10;99.90
15156;DHT22;7678;50.058;8.306;2024-01-07T01:04:43;4.10;99.90
15156;DHT22;7678;50.058;8.306;2024-01-07T01:07:11;4.10;99.90
15156;DHT22;7678;50.058;8.306;2024-01-07T01:09:40;4.10;99.90
15156;DHT22;7678;50.058;8.306;2024-01-07T01:12:08;4.10;99.90
15156;DHT22;7678;50.058;8.306;2024-01-07T01:14:36;4.10;99.90
15156;DHT22;7678;50.058;8.306;2024-01-07T01:17:06;4.00;99.90
15156;DHT22;7678;50.058;8.306;2024-01-07T01:19:34;4.10;99.90
15156;DHT22;7678;50.058;8.306;2024-01-07T01:22:03;4.10;99.90
15156;DHT22;7678;50.058;8.306;2024-01-07T01:24:31;4.10;99.90
15156;DHT22;7678;50.058;8.306;2024-01-07T01:27:00;4.10;99.90
15156;DHT22;7678;50.058;8.306;2024-01-07T01:29:28;4.10;99.90
15156;DHT22;7678;50.058;8.306;2024-01-07T01:31:57;4.10;99.90
15156;DHT22;7678;50.058;8.306;2024-01-07T01:34:26;4.10;99.90
15156;DHT22;7678;50.058;8.306;2024-01-07T01:36:55;4.10;99.90
15156;DHT22;7678;50.058;8.306;2024-01-07T01:39:23;4.10;99.90
15156;DHT22;7678;50.058;8.306;2024-01-07T01:41:52;4.10;99.90
15156;DHT22;7678;50.058;8.306;2024-01-07T01:44:22;4.00;99.90
15156;DHT22;7678;50.058;8.306;2024-01-07T01:46:50;4.00;99.90
15156;DHT22;7678;50.058;8.306;2024-01-07T01:49:19;4.00;99.90
15156;DHT22;7678;50.058;8.306;2024-01-07T01:51:49;4.10;99.90
15156;DHT22;7678;50.058;8.306;2024-01-07T01:54:20;4.00;99.90
15156;DHT22;7678;50.058;8.306;2024-01-07T01:56:49;4.00;99.90
15156;DHT22;7678;50.058;8.306;2024-01-07T01:59:17;4.00;99.90
15156;DHT22;7678;50.058;8.306;2024-01-07T02:01:46;4.10;99.90
15156;DHT22;7678;50.058;8.306;2024-01-07T02:04:15;4.10;99.90
15156;DHT22;7678;50.058;8.306;2024-01-07T02:06:45;4.10;99.90
15156;DHT22;7678;50.058;8.306;2024-01-07T02:09:15;4.00;99.90
15156;DHT22;7678;50.058;8.306;2024-01-07T02:11:43;4.00;99.90
15156;DHT22;7678;50.058;8.306;2024-01-07T02:14:11;4.10;99.90
15156;DHT22;7678;50.058;8.306;2024-01-07T02:16:40;4.10;99.90
15156;DHT22;7678;50.058;8.306;2024-01-07T02:19:09;4.00;99.90
15156;DHT22;7678;50.058;8.306;2024-01-07T02:21:37;4.00;99.90
15156;DHT22;7678;50.058;8.306;2024-01-07T02:24:15;4.00;99.90
15156;DHT22;7678;50.058;8.306;2024-01-07T02:26:43;4.00;99.90
15156;DHT22;7678;50.058;8.306;2024-01-07T02:29:12;4.00;99.90
15156;DHT22;7678;50.058;8.306;2024-01-07T02:31:41;4.00;99.90
15156;DHT22;7678;50.058;8.306;2024-01-07T02:34:09;3.90;99.90
15156;DHT22;7678;50.058;8.306;2024-01-07T02:36:38;3.90;99.90
15156;DHT22;7678;50.058;8.306;2024-01-07T02:39:07;4.00;99.90
15156;DHT22;7678;50.058;8.306;2024-01-07T02:41:36;4.00;99.90
15156;DHT22;7678;50.058;8.306;2024-01-07T02:44:04;4.00;99.90
15156;DHT22;7678;50.058;8.306;2024-01-07T02:46:35;4.00;99.90
15156;DHT22;7678;50.058;8.306;2024-01-07T02:49:03;4.00;99.90
15156;DHT22;7678;50.058;8.306;2024-01-07T02:51:32;3.90;99.90
15156;DHT22;7678;50.058;8.306;2024-01-07T02:54:00;4.00;99.90
15156;DHT22;7678;50.058;8.306;2024-01-07T02:56:30;3.90;99.90
15156;DHT22;7678;50.058;8.306;2024-01-07T02:58:58;3.90;99.90
15156;DHT22;7678;50.058;8.306;2024-01-07T03:01:27;3.90;99.90
15156;DHT22;7678;50.058;8.306;2024-01-07T03:03:55;3.90;99.90
15156;DHT22;7678;50.058;8.306;2024-01-07T03:06:26;3.90;99.90
15156;DHT22;7678;50.058;8.306;2024-01-07T03:08:58;3.90;99.90
15156;DHT22;7678;50.058;8.306;2024-01-07T03:11:26;3.90;99.90
15156;DHT22;7678;50.058;8.306;2024-01-07T03:13:55;4.00;99.90
15156;DHT22;7678;50.058;8.306;2024-01-07T03:16:25;3.90;99.90
15156;DHT22;7678;50.058;8.306;2024-01-07T03:18:53;3.90;99.90
15156;DHT22;7678;50.058;8.306;2024-01-07T03:21:23;3.90;99.90
15156;DHT22;7678;50.058;8.306;2024-01-07T03:23:51;3.90;99.90
15156;DHT22;7678;50.058;8.306;2024-01-07T03:26:20;3.90;99.90
15156;DHT22;7678;50.058;8.306;2024-01-07T03:28:49;3.80;99.90
15156;DHT22;7678;50.058;8.306;2024-01-07T03:31:19;3.80;99.90
15156;DHT22;7678;50.058;8.306;2024-01-07T03:33:50;3.70;99.90
15156;DHT22;7678;50.058;8.306;2024-01-07T03:36:19;3.70;99.90
15156;DHT22;7678;50.058;8.306;2024-01-07T03:38:47;3.70;99.90
15156;DHT22;7678;50.058;8.306;2024-01-07T03:41:17;3.60;99.90
15156;DHT22;7678;50.058;8.306;2024-01-07T03:43:46;3.60;99.90
15156;DHT22;7678;50.058;8.306;2024-01-07T03:46:14;3.70;99.90
15156;DHT22;7678;50.058;8.306;2024-01-07T03:48:44;3.60;99.90
15156;DHT22;7678;50.058;8.306;2024-01-07T03:51:13;3.60;99.90
15156;DHT22;7678;50.058;8.306;2024-01-07T03:53:42;3.70;99.90
15156;DHT22;7678;50.058;8.306;2024-01-07T03:56:11;3.70;99.90
15156;DHT22;7678;50.058;8.306;2024-01-07T03:58:39;3.60;99.90
15156;DHT22;7678;50.058;8.306;2024-01-07T04:01:07;3.70;99.90
15156;DHT22;7678;50.058;8.306;2024-01-07T04:03:38;3.70;99.90
15156;DHT22;7678;50.058;8.306;2024-01-07T04:06:08;3.70;99.90
15156;DHT22;7678;50.058;8.306;2024-01-07T04:08:37;3.60;99.90
15156;DHT22;7678;50.058;8.306;2024-01-07T04:11:05;3.70;99.90
15156;DHT22;7678;50.058;8.306;2024-01-07T04:13:33;3.60;99.90
15156;DHT22;7678;50.058;8.306;2024-01-07T04:16:01;3.60;99.90
15156;DHT22;7678;50.058;8.306;2024-01-07T04:18:29;3.60;99.90
15156;DHT22;7678;50.058;8.306;2024-01-07T04:20:58;3.60;99.90
15156;DHT22;7678;50.058;8.306;2024-01-07T04:23:27;3.60;99.90
15156;DHT22;7678;50.058;8.306;2024-01-07T04:25:55;3.70;99.90
15156;DHT22;7678;50.058;8.306;2024-01-07T04:28:23;3.70;99.90
15156;DHT22;7678;50.058;8.306;2024-01-07T04:30:52;3.60;99.90
15156;DHT22;7678;50.058;8.306;2024-01-07T04:33:20;3.60;99.90
15156;DHT22;7678;50.058;8.306;2024-01-07T04:35:48;3.70;99.90
15156;DHT22;7678;50.058;8.306;2024-01-07T04:38:16;3.70;99.90
15156;DHT22;7678;50.058;8.306;2024-01-07T04:40:46;3.70;99.90
15156;DHT22;7678;50.058;8.306;2024-01-07T04:43:14;3.70;99.90
15156;DHT22;7678;50.058;8.306;2024-01-07T04:45:43;3.70;99.90
15156;DHT22;7678;50.058;8.306;2024-01-07T04:48:11;3.80;99.90
15156;DHT22;7678;50.058;8.306;2024-01-07T04:50:40;3.70;99.90
15156;DHT22;7678;50.058;8.306;2024-01-07T04:53:08;3.70;99.90
15156;DHT22;7678;50.058;8.306;2024-01-07T04:55:40;3.80;99.90
15156;DHT22;7678;50.058;8.306;2024-01-07T04:58:09;3.70;99.90
15156;DHT22;7678;50.058;8.306;2024-01-07T05:00:38;3.70;99.90
15156;DHT22;7678;50.058;8.306;2024-01-07T05:03:06;3.70;99.90
15156;DHT22;7678;50.058;8.306;2024-01-07T05:05:34;3.70;99.90
15156;DHT22;7678;50.058;8.306;2024-01-07T05:08:05;3.70;99.90
15156;DHT22;7678;50.058;8.306;2024-01-07T05:10:34;3.70;99.90
15156;DHT22;7678;50.058;8.306;2024-01-07T05:13:02;3.80;99.90
15156;DHT22;7678;50.058;8.306;2024-01-07T05:15:35;3.70;99.90
15156;DHT22;7678;50.058;8.306;2024-01-07T05:18:07;3.80;99.90
15156;DHT22;7678;50.058;8.306;2024-01-07T05:20:36;3.70;99.90
15156;DHT22;7678;50.058;8.306;2024-01-07T05:23:04;3.70;99.90
15156;DHT22;7678;50.058;8.306;2024-01-07T05:25:33;3.70;99.90
15156;DHT22;7678;50.058;8.306;2024-01-07T05:28:01;3.70;99.90
15156;DHT22;7678;50.058;8.306;2024-01-07T05:30:29;3.70;99.90
15156;DHT22;7678;50.058;8.306;2024-01-07T05:33:00;3.70;99.90
15156;DHT22;7678;50.058;8.306;2024-01-07T05:35:29;3.70;99.90
15156;DHT22;7678;50.058;8.306;2024-01-07T05:38:00;3.70;99.90
15156;DHT22;7678;50.058;8.306;2024-01-07T05:40:28;3.70;99.90
15156;DHT22;7678;50.058;8.306;2024-01-07T05:42:56;3.70;99.90
15156;DHT22;7678;50.058;8.306;2024-01-07T05:45:24;3.70;99.90
15156;DHT22;7678;50.058;8.306;2024-01-07T05:47:53;3.70;99.90
15156;DHT22;7678;50.058;8.306;2024-01-07T05:50:23;3.70;99.90
15156;DHT22;7678;50.058;8.306;2024-01-07T05:52:51;3.60;99.90
15156;DHT22;7678;50.058;8.306;2024-01-07T05:55:19;3.70;99.90
15156;DHT22;7678;50.058;8.306;2024-01-07T05:57:47;3.70;99.90
15156;DHT22;7678;50.058;8.306;2024-01-07T06:00:16;3.60;99.90
15156;DHT22;7678;50.058;8.306;2024-01-07T06:02:45;3.60;99.90
15156;DHT22;7678;50.058;8.306;2024-01-07T06:05:13;3.70;99.90
15156;DHT22;7678;50.058;8.306;2024-01-07T06:07:43;3.60;99.90
15156;DHT22;7678;50.058;8.306;2024-01-07T06:10:12;3.60;99.90
15156;DHT22;7678;50.058;8.306;2024-01-07T06:12:41;3.60;99.90
15156;DHT22;7678;50.058;8.306;2024-01-07T06:15:09;3.60;99.90
15156;DHT22;7678;50.058;8.306;2024-01-07T06:17:38;3.60;99.90
15156;DHT22;7678;50.058;8.306;2024-01-07T06:20:07;3.60;99.90
15156;DHT22;7678;50.058;8.306;2024-01-07T06:22:36;3.50;99.90
15156;DHT22;7678;50.058;8.306;2024-01-07T06:25:07;3.60;99.90
15156;DHT22;7678;50.058;8.306;2024-01-07T06:27:38;3.60;99.90
15156;DHT22;7678;50.058;8.306;2024-01-07T06:30:07;3.60;99.90
15156;DHT22;7678;50.058;8.306;2024-01-07T06:32:35;3.60;99.90
15156;DHT22;7678;50.058;8.306;2024-01-07T06:35:04;3.60;99.90
15156;DHT22;7678;50.058;8.306;2024-01-07T06:37:34;3.70;99.90
15156;DHT22;7678;50.058;8.306;2024-01-07T06:40:03;3.70;99.90
15156;DHT22;7678;50.058;8.306;2024-01-07T06:42:33;3.70;99.90
15156;DHT22;7678;50.058;8.306;2024-01-07T06:45:05;3.60;99.90
15156;DHT22;7678;50.058;8.306;2024-01-07T06:47:33;3.70;99.90
15156;DHT22;7678;50.058;8.306;2024-01-07T06:50:01;3.70;99.90
15156;DHT22;7678;50.058;8.306;2024-01-07T06:52:30;3.70;99.90
15156;DHT22;7678;50.058;8.306;2024-01-07T06:54:58;3.70;99.90
15156;DHT22;7678;50.058;8.306;2024-01-07T06:57:26;3.70;99.90
15156;DHT22;7678;50.058;8.306;2024-01-07T06:59:56;3.70;99.90
15156;DHT22;7678;50.058;8.306;2024-01-07T07:02:24;3.70;99.90
15156;DHT22;7678;50.058;8.306;2024-01-07T07:04:52;3.80;99.90
15156;DHT22;7678;50.058;8.306;2024-01-07T07:07:21;3.80;99.90
15156;DHT22;7678;50.058;8.306;2024-01-07T07:09:50;3.80;99.90
15156;DHT22;7678;50.058;8.306;2024-01-07T07:12:18;3.80;99.90
15156;DHT22;7678;50.058;8.306;2024-01-07T07:14:47;3.70;99.90
15156;DHT22;7678;50.058;8.306;2024-01-07T07:17:17;3.70;99.90
15156;DHT22;7678;50.058;8.306;2024-01-07T07:19:45;3.80;99.90
15156;DHT22;7678;50.058;8.306;2024-01-07T07:22:13;3.80;99.90
15156;DHT22;7678;50.058;8.306;2024-01-07T07:24:42;3.80;99.90
15156;DHT22;7678;50.058;8.306;2024-01-07T07:27:10;3.80;99.90
15156;DHT22;7678;50.058;8.306;2024-01-07T07:29:38;3.80;99.90
15156;DHT22;7678;50.058;8.306;2024-01-07T07:32:06;3.80;99.90
15156;DHT22;7678;50.058;8.306;2024-01-07T07:34:36;3.80;99.90
15156;DHT22;7678;50.058;8.306;2024-01-07T07:37:04;3.80;99.90
15156;DHT22;7678;50.058;8.306;2024-01-07T07:39:33;3.80;99.90
15156;DHT22;7678;50.058;8.306;2024-01-07T07:42:02;3.90;99.90
15156;DHT22;7678;50.058;8.306;2024-01-07T07:44:38;3.80;99.90
15156;DHT22;7678;50.058;8.306;2024-01-07T07:47:07;3.80;99.90
15156;DHT22;7678;50.058;8.306;2024-01-07T07:49:39;3.70;99.90
15156;DHT22;7678;50.058;8.306;2024-01-07T07:52:08;3.70;99.90
15156;DHT22;7678;50.058;8.306;2024-01-07T07:54:37;3.70;99.90
15156;DHT22;7678;50.058;8.306;2024-01-07T07:57:05;3.70;99.90
15156;DHT22;7678;50.058;8.306;2024-01-07T07:59:34;3.60;99.90
15156;DHT22;7678;50.058;8.306;2024-01-07T08:02:02;3.70;99.90
15156;DHT22;7678;50.058;8.306;2024-01-07T08:04:30;3.60;99.90
15156;DHT22;7678;50.058;8.306;2024-01-07T08:07:02;3.60;99.90
15156;DHT22;7678;50.058;8.306;2024-01-07T08:09:31;3.60;99.90
15156;DHT22;7678;50.058;8.306;2024-01-07T08:11:59;3.60;99.90
15156;DHT22;7678;50.058;8.306;2024-01-07T08:14:28;3.60;99.90
15156;DHT22;7678;50.058;8.306;2024-01-07T08:16:56;3.60;99.90
15156;DHT22;7678;50.058;8.306;2024-01-07T08:19:25;3.70;99.90
15156;DHT22;7678;50.058;8.306;2024-01-07T08:21:53;3.70;99.90
15156;DHT22;7678;50.058;8.306;2024-01-07T08:24:25;3.70;99.90
15156;DHT22;7678;50.058;8.306;2024-01-07T08:26:53;3.80;99.90
15156;DHT22;7678;50.058;8.306;2024-01-07T08:29:21;3.80;99.90
15156;DHT22;7678;50.058;8.306;2024-01-07T08:31:50;3.80;99.90
15156;DHT22;7678;50.058;8.306;2024-01-07T08:34:18;3.80;99.90
15156;DHT22;7678;50.058;8.306;2024-01-07T08:36:47;3.90;99.90
15156;DHT22;7678;50.058;8.306;2024-01-07T08:39:17;3.80;99.90
15156;DHT22;7678;50.058;8.306;2024-01-07T08:41:47;3.80;99.90
15156;DHT22;7678;50.058;8.306;2024-01-07T08:44:15;3.80;99.90
15156;DHT22;7678;50.058;8.306;2024-01-07T08:46:46;3.80;99.90
15156;DHT22;7678;50.058;8.306;2024-01-07T08:49:14;3.90;99.90
15156;DHT22;7678;50.058;8.306;2024-01-07T08:51:42;3.80;99.90
15156;DHT22;7678;50.058;8.306;2024-01-07T08:54:11;3.70;99.90
15156;DHT22;7678;50.058;8.306;2024-01-07T08:56:40;3.80;99.90
15156;DHT22;7678;50.058;8.306;2024-01-07T08:59:10;3.90;99.90
15156;DHT22;7678;50.058;8.306;2024-01-07T09:01:38;3.90;99.90
15156;DHT22;7678;50.058;8.306;2024-01-07T09:04:05;3.90;99.90
15156;DHT22;7678;50.058;8.306;2024-01-07T09:06:33;3.90;99.90
15156;DHT22;7678;50.058;8.306;2024-01-07T09:09:02;3.90;99.90
15156;DHT22;7678;50.058;8.306;2024-01-07T09:11:32;3.90;99.90
15156;DHT22;7678;50.058;8.306;2024-01-07T09:14:01;4.00;99.90
15156;DHT22;7678;50.058;8.306;2024-01-07T09:16:31;3.90;99.90
15156;DHT22;7678;50.058;8.306;2024-01-07T09:18:59;3.90;99.90
15156;DHT22;7678;50.058;8.306;2024-01-07T09:21:28;3.90;99.90
15156;DHT22;7678;50.058;8.306;2024-01-07T09:23:56;3.80;99.90
15156;DHT22;7678;50.058;8.306;2024-01-07T09:26:24;3.80;99.90
15156;DHT22;7678;50.058;8.306;2024-01-07T09:28:53;3.80;99.90
15156;DHT22;7678;50.058;8.306;2024-01-07T09:31:21;3.70;99.90
15156;DHT22;7678;50.058;8.306;2024-01-07T09:33:50;3.60;99.90
15156;DHT22;7678;50.058;8.306;2024-01-07T09:36:19;3.70;99.90
15156;DHT22;7678;50.058;8.306;2024-01-07T09:38:56;3.70;99.90
15156;DHT22;7678;50.058;8.306;2024-01-07T09:41:24;3.70;99.90
15156;DHT22;7678;50.058;8.306;2024-01-07T09:43:53;3.80;99.90
15156;DHT22;7678;50.058;8.306;2024-01-07T09:46:22;3.80;99.90
15156;DHT22;7678;50.058;8.306;2024-01-07T09:48:51;3.90;99.90
15156;DHT22;7678;50.058;8.306;2024-01-07T09:51:22;3.90;99.90
15156;DHT22;7678;50.058;8.306;2024-01-07T09:53:57;4.00;99.90
15156;DHT22;7678;50.058;8.306;2024-01-07T09:56:32;4.00;99.90
15156;DHT22;7678;50.058;8.306;2024-01-07T09:59:03;4.00;99.90
15156;DHT22;7678;50.058;8.306;2024-01-07T10:01:31;3.90;99.90
15156;DHT22;7678;50.058;8.306;2024-01-07T10:04:02;3.90;99.90
15156;DHT22;7678;50.058;8.306;2024-01-07T10:06:31;4.00;99.90
15156;DHT22;7678;50.058;8.306;2024-01-07T10:08:59;4.10;99.90
15156;DHT22;7678;50.058;8.306;2024-01-07T10:11:27;4.00;99.90
15156;DHT22;7678;50.058;8.306;2024-01-07T10:13:55;4.00;99.90
15156;DHT22;7678;50.058;8.306;2024-01-07T10:16:24;3.90;99.90
15156;DHT22;7678;50.058;8.306;2024-01-07T10:18:52;3.80;99.90
15156;DHT22;7678;50.058;8.306;2024-01-07T10:21:22;3.80;99.90
15156;DHT22;7678;50.058;8.306;2024-01-07T10:23:50;3.80;99.90
15156;DHT22;7678;50.058;8.306;2024-01-07T10:26:21;3.90;99.90
15156;DHT22;7678;50.058;8.306;2024-01-07T10:28:56;3.80;99.90
15156;DHT22;7678;50.058;8.306;2024-01-07T10:31:25;3.70;99.90
15156;DHT22;7678;50.058;8.306;2024-01-07T10:33:55;3.80;99.90
15156;DHT22;7678;50.058;8.306;2024-01-07T10:36:26;3.70;99.90
15156;DHT22;7678;50.058;8.306;2024-01-07T10:38:54;3.70;99.90
15156;DHT22;7678;50.058;8.306;2024-01-07T10:41:24;3.70;99.90
15156;DHT22;7678;50.058;8.306;2024-01-07T10:43:53;3.70;99.90
15156;DHT22;7678;50.058;8.306;2024-01-07T10:46:21;3.70;99.90
15156;DHT22;7678;50.058;8.306;2024-01-07T10:48:54;3.60;99.90
15156;DHT22;7678;50.058;8.306;2024-01-07T10:51:23;3.60;99.90
15156;DHT22;7678;50.058;8.306;2024-01-07T10:53:53;3.60;99.90
15156;DHT22;7678;50.058;8.306;2024-01-07T10:56:29;3.60;99.90
15156;DHT22;7678;50.058;8.306;2024-01-07T10:58:59;3.50;99.90
15156;DHT22;7678;50.058;8.306;2024-01-07T11:01:27;3.60;99.90
15156;DHT22;7678;50.058;8.306;2024-01-07T11:04:01;3.70;99.90
15156;DHT22;7678;50.058;8.306;2024-01-07T11:06:38;3.70;99.90
15156;DHT22;7678;50.058;8.306;2024-01-07T11:09:17;3.70;99.90
15156;DHT22;7678;50.058;8.306;2024-01-07T11:11:51;3.80;99.90
15156;DHT22;7678;50.058;8.306;2024-01-07T11:14:34;3.70;99.90
15156;DHT22;7678;50.058;8.306;2024-01-07T11:17:04;3.70;99.90
15156;DHT22;7678;50.058;8.306;2024-01-07T11:19:32;3.70;99.90
15156;DHT22;7678;50.058;8.306;2024-01-07T11:22:20;3.50;99.90
15156;DHT22;7678;50.058;8.306;2024-01-07T11:24:51;3.50;99.90
15156;DHT22;7678;50.058;8.306;2024-01-07T11:27:21;3.60;99.90
15156;DHT22;7678;50.058;8.306;2024-01-07T11:29:53;3.60;99.90
15156;DHT22;7678;50.058;8.306;2024-01-07T11:32:23;3.40;99.90
15156;DHT22;7678;50.058;8.306;2024-01-07T11:34:54;3.50;99.90
15156;DHT22;7678;50.058;8.306;2024-01-07T11:37:24;3.50;99.90
15156;DHT22;7678;50.058;8.306;2024-01-07T11:39:55;3.50;99.90
15156;DHT22;7678;50.058;8.306;2024-01-07T11:42:24;3.50;99.90
15156;DHT22;7678;50.058;8.306;2024-01-07T11:44:53;3.40;99.90
15156;DHT22;7678;50.058;8.306;2024-01-07T11:47:23;3.20;99.90
15156;DHT22;7678;50.058;8.306;2024-01-07T11:49:53;3.30;99.90
15156;DHT22;7678;50.058;8.306;2024-01-07T11:52:21;3.20;99.90
15156;DHT22;7678;50.058;8.306;2024-01-07T11:54:53;3.10;99.90
15156;DHT22;7678;50.058;8.306;2024-01-07T11:57:22;3.00;99.90
15156;DHT22;7678;50.058;8.306;2024-01-07T11:59:50;3.10;99.90
15156;DHT22;7678;50.058;8.306;2024-01-07T12:02:19;3.20;99.90
15156;DHT22;7678;50.058;8.306;2024-01-07T12:04:47;3.20;99.90
15156;DHT22;7678;50.058;8.306;2024-01-07T12:07:16;3.20;99.90
15156;DHT22;7678;50.058;8.306;2024-01-07T12:09:45;3.40;99.90
15156;DHT22;7678;50.058;8.306;2024-01-07T12:12:14;3.30;99.90
15156;DHT22;7678;50.058;8.306;2024-01-07T12:14:43;3.20;99.90
15156;DHT22;7678;50.058;8.306;2024-01-07T12:17:11;3.20;99.90
15156;DHT22;7678;50.058;8.306;2024-01-07T12:19:40;3.20;99.90
15156;DHT22;7678;50.058;8.306;2024-01-07T12:22:09;3.30;99.90
15156;DHT22;7678;50.058;8.306;2024-01-07T12:24:37;3.30;99.90
15156;DHT22;7678;50.058;8.306;2024-01-07T12:27:06;3.30;99.90
15156;DHT22;7678;50.058;8.306;2024-01-07T12:29:36;3.40;99.90
15156;DHT22;7678;50.058;8.306;2024-01-07T12:32:05;3.40;99.90
15156;DHT22;7678;50.058;8.306;2024-01-07T12:34:42;3.30;99.90
15156;DHT22;7678;50.058;8.306;2024-01-07T12:37:13;3.30;99.90
15156;DHT22;7678;50.058;8.306;2024-01-07T12:39:41;3.20;99.90
15156;DHT22;7678;50.058;8.306;2024-01-07T12:42:10;3.10;99.90
15156;DHT22;7678;50.058;8.306;2024-01-07T12:44:41;3.20;99.90
15156;DHT22;7678;50.058;8.306;2024-01-07T12:47:09;3.20;99.90
15156;DHT22;7678;50.058;8.306;2024-01-07T12:49:37;3.10;99.90
15156;DHT22;7678;50.058;8.306;2024-01-07T12:52:06;3.20;99.90
15156;DHT22;7678;50.058;8.306;2024-01-07T12:54:37;3.10;99.90
15156;DHT22;7678;50.058;8.306;2024-01-07T12:57:07;3.10;99.90
15156;DHT22;7678;50.058;8.306;2024-01-07T12:59:35;3.00;99.90
15156;DHT22;7678;50.058;8.306;2024-01-07T13:02:05;3.00;99.90
15156;DHT22;7678;50.058;8.306;2024-01-07T13:04:34;3.10;99.90
15156;DHT22;7678;50.058;8.306;2024-01-07T13:07:02;2.80;99.90
15156;DHT22;7678;50.058;8.306;2024-01-07T13:09:31;2.90;99.90
15156;DHT22;7678;50.058;8.306;2024-01-07T13:11:59;2.80;99.90
15156;DHT22;7678;50.058;8.306;2024-01-07T13:14:28;2.70;99.90
15156;DHT22;7678;50.058;8.306;2024-01-07T13:16:57;2.70;99.90
15156;DHT22;7678;50.058;8.306;2024-01-07T13:19:26;2.60;99.90
15156;DHT22;7678;50.058;8.306;2024-01-07T13:21:55;2.60;99.90
15156;DHT22;7678;50.058;8.306;2024-01-07T13:24:25;2.50;99.90
15156;DHT22;7678;50.058;8.306;2024-01-07T13:26:53;2.60;99.90
15156;DHT22;7678;50.058;8.306;2024-01-07T13:29:24;2.50;99.90
15156;DHT22;7678;50.058;8.306;2024-01-07T13:31:52;2.50;99.90
15156;DHT22;7678;50.058;8.306;2024-01-07T13:34:21;2.50;99.90
15156;DHT22;7678;50.058;8.306;2024-01-07T13:36:52;2.40;99.90
15156;DHT22;7678;50.058;8.306;2024-01-07T13:39:21;2.30;99.90
15156;DHT22;7678;50.058;8.306;2024-01-07T13:41:50;2.20;99.90
15156;DHT22;7678;50.058;8.306;2024-01-07T13:44:25;2.30;99.90
15156;DHT22;7678;50.058;8.306;2024-01-07T13:46:53;2.30;99.90
15156;DHT22;7678;50.058;8.306;2024-01-07T13:49:22;2.20;99.90
15156;DHT22;7678;50.058;8.306;2024-01-07T13:51:52;2.20;99.90
15156;DHT22;7678;50.058;8.306;2024-01-07T13:54:22;2.20;99.90
15156;DHT22;7678;50.058;8.306;2024-01-07T13:56:50;2.20;99.90
15156;DHT22;7678;50.058;8.306;2024-01-07T13:59:18;2.10;99.90
15156;DHT22;7678;50.058;8.306;2024-01-07T14:01:46;2.20;99.90
15156;DHT22;7678;50.058;8.306;2024-01-07T14:04:15;2.30;99.90
15156;DHT22;7678;50.058;8.306;2024-01-07T14:06:43;2.30;99.90
15156;DHT22;7678;50.058;8.306;2024-01-07T14:09:18;2.20;99.90
15156;DHT22;7678;50.058;8.306;2024-01-07T14:11:46;2.20;99.90
15156;DHT22;7678;50.058;8.306;2024-01-07T14:14:15;2.00;99.90
15156;DHT22;7678;50.058;8.306;2024-01-07T14:16:46;2.00;99.90
15156;DHT22;7678;50.058;8.306;2024-01-07T14:19:16;2.00;99.90
15156;DHT22;7678;50.058;8.306;2024-01-07T14:21:46;1.90;99.90
15156;DHT22;7678;50.058;8.306;2024-01-07T14:24:17;1.90;99.90
15156;DHT22;7678;50.058;8.306;2024-01-07T14:26:46;1.80;99.90
15156;DHT22;7678;50.058;8.306;2024-01-07T14:29:14;1.60;99.90
15156;DHT22;7678;50.058;8.306;2024-01-07T14:31:44;1.60;99.90
15156;DHT22;7678;50.058;8.306;2024-01-07T14:34:13;1.50;99.90
15156;DHT22;7678;50.058;8.306;2024-01-07T14:36:44;1.50;99.90
15156;DHT22;7678;50.058;8.306;2024-01-07T14:39:15;1.50;99.90
15156;DHT22;7678;50.058;8.306;2024-01-07T14:41:46;1.40;99.90
15156;DHT22;7678;50.058;8.306;2024-01-07T14:44:15;1.50;99.90
15156;DHT22;7678;50.058;8.306;2024-01-07T14:46:48;1.60;99.90
15156;DHT22;7678;50.058;8.306;2024-01-07T14:49:17;1.40;99.90
15156;DHT22;7678;50.058;8.306;2024-01-07T14:51:46;1.30;99.90
15156;DHT22;7678;50.058;8.306;2024-01-07T14:54:16;1.40;99.90
15156;DHT22;7678;50.058;8.306;2024-01-07T14:56:45;1.30;99.90
15156;DHT22;7678;50.058;8.306;2024-01-07T14:59:14;1.20;99.90
15156;DHT22;7678;50.058;8.306;2024-01-07T15:01:43;1.20;99.90
15156;DHT22;7678;50.058;8.306;2024-01-07T15:04:11;1.10;99.90
15156;DHT22;7678;50.058;8.306;2024-01-07T15:06:41;1.10;99.90
15156;DHT22;7678;50.058;8.306;2024-01-07T15:09:09;1.10;99.90
15156;DHT22;7678;50.058;8.306;2024-01-07T15:11:40;1.10;99.90
15156;DHT22;7678;50.058;8.306;2024-01-07T15:14:13;1.10;99.90
15156;DHT22;7678;50.058;8.306;2024-01-07T15:16:41;1.00;99.90
15156;DHT22;7678;50.058;8.306;2024-01-07T15:19:10;1.00;99.90
15156;DHT22;7678;50.058;8.306;2024-01-07T15:21:39;0.80;99.90
15156;DHT22;7678;50.058;8.306;2024-01-07T15:24:07;0.80;99.90
15156;DHT22;7678;50.058;8.306;2024-01-07T15:26:36;0.70;99.90
15156;DHT22;7678;50.058;8.306;2024-01-07T15:29:06;0.70;99.90
15156;DHT22;7678;50.058;8.306;2024-01-07T15:31:35;0.70;99.90
15156;DHT22;7678;50.058;8.306;2024-01-07T15:34:04;0.60;99.90
15156;DHT22;7678;50.058;8.306;2024-01-07T15:36:32;0.60;99.90
15156;DHT22;7678;50.058;8.306;2024-01-07T15:39:01;0.70;99.90
15156;DHT22;7678;50.058;8.306;2024-01-07T15:41:30;0.80;99.90
15156;DHT22;7678;50.058;8.306;2024-01-07T15:43:58;0.70;99.90
15156;DHT22;7678;50.058;8.306;2024-01-07T15:46:26;0.70;99.90
15156;DHT22;7678;50.058;8.306;2024-01-07T15:48:56;0.50;99.90
15156;DHT22;7678;50.058;8.306;2024-01-07T15:51:25;0.60;99.90
15156;DHT22;7678;50.058;8.306;2024-01-07T15:53:53;0.60;99.90
15156;DHT22;7678;50.058;8.306;2024-01-07T15:56:22;0.60;99.90
15156;DHT22;7678;50.058;8.306;2024-01-07T15:58:50;0.40;99.90
15156;DHT22;7678;50.058;8.306;2024-01-07T16:01:18;0.30;99.90
15156;DHT22;7678;50.058;8.306;2024-01-07T16:03:47;0.30;99.90
15156;DHT22;7678;50.058;8.306;2024-01-07T16:06:16;0.30;99.90
15156;DHT22;7678;50.058;8.306;2024-01-07T16:08:45;0.30;99.90
15156;DHT22;7678;50.058;8.306;2024-01-07T16:11:13;0.20;99.90
15156;DHT22;7678;50.058;8.306;2024-01-07T16:13:44;0.20;99.90